createdAt,value
2018-12-04T00:02:13.547Z,4.23
2018-12-04T00:04:41.055Z,3.60
2018-12-04T00:07:08.553Z,4.10
2018-12-04T00:09:36.065Z,2.60
2018-12-04T00:12:03.579Z,2.37
2018-12-04T00:14:31.037Z,3.97
2018-12-04T00:16:58.555Z,2.80
2018-12-04T00:19:26.013Z,3.07
2018-12-04T00:21:53.558Z,1.70
2018-12-04T00:24:21.027Z,2.10
2018-12-04T00:26:48.506Z,1.57
2018-12-04T00:29:15.954Z,1.53
2018-12-04T00:31:43.446Z,2.23
2018-12-04T00:34:10.911Z,1.40
2018-12-04T00:36:38.382Z,2.07
2018-12-04T00:39:06.191Z,3.10
2018-12-04T00:41:33.670Z,1.70
2018-12-04T00:44:01.127Z,2.27
2018-12-04T00:46:28.606Z,1.67
2018-12-04T00:48:56.073Z,3.00
2018-12-04T00:51:23.554Z,3.27
2018-12-04T00:53:51.015Z,5.27
2018-12-04T00:56:18.502Z,2.40
2018-12-04T00:58:45.957Z,4.83
2018-12-04T01:01:13.416Z,2.53
2018-12-04T01:03:40.900Z,4.37
2018-12-04T01:06:08.397Z,2.80
2018-12-04T01:08:35.865Z,2.70
2018-12-04T01:11:03.339Z,5.27
2018-12-04T01:13:30.852Z,2.43
2018-12-04T01:15:58.438Z,4.23
2018-12-04T01:18:25.925Z,3.40
2018-12-04T01:20:53.441Z,4.80
2018-12-04T01:23:21.014Z,2.67
2018-12-04T01:25:48.508Z,1.20
2018-12-04T01:28:15.978Z,5.97
2018-12-04T01:30:43.441Z,3.73
2018-12-04T01:33:10.946Z,2.90
2018-12-04T01:35:38.422Z,1.40
2018-12-04T01:38:05.906Z,1.67
2018-12-04T01:40:33.394Z,3.23
2018-12-04T01:43:00.875Z,3.13
2018-12-04T01:45:28.341Z,5.90
2018-12-04T01:47:55.809Z,2.80
2018-12-04T01:50:23.278Z,3.33
2018-12-04T01:52:50.955Z,2.93
2018-12-04T01:55:18.425Z,2.17
2018-12-04T01:57:45.892Z,4.97
2018-12-04T02:00:13.392Z,3.13
2018-12-04T02:02:40.847Z,3.40
2018-12-04T02:05:08.342Z,3.43
2018-12-04T02:07:35.808Z,3.87
2018-12-04T02:10:04.325Z,5.53
2018-12-04T02:12:31.829Z,5.87
2018-12-04T02:14:59.303Z,7.87
2018-12-04T02:17:26.774Z,3.60
2018-12-04T02:19:54.250Z,3.93
2018-12-04T02:22:21.710Z,3.13
2018-12-04T02:24:49.189Z,2.40
2018-12-04T02:27:16.650Z,5.60
2018-12-04T02:29:44.130Z,2.87
2018-12-04T02:32:11.609Z,2.93
2018-12-04T02:34:39.097Z,3.17
2018-12-04T02:37:06.557Z,3.77
2018-12-04T02:39:34.046Z,3.43
2018-12-04T02:42:01.506Z,4.77
2018-12-04T02:44:28.986Z,2.43
2018-12-04T02:46:56.443Z,2.63
2018-12-04T02:49:23.903Z,4.43
2018-12-04T02:51:51.473Z,3.13
2018-12-04T02:54:18.947Z,1.30
2018-12-04T02:56:46.425Z,1.70
2018-12-04T02:59:13.874Z,2.07
2018-12-04T03:01:41.340Z,2.53
2018-12-04T03:04:08.828Z,3.20
2018-12-04T03:06:36.336Z,1.67
2018-12-04T03:09:05.871Z,4.30
2018-12-04T03:11:33.345Z,2.70
2018-12-04T03:14:00.801Z,4.70
2018-12-04T03:16:28.271Z,1.70
2018-12-04T03:18:55.735Z,2.20
2018-12-04T03:21:23.217Z,3.63
2018-12-04T03:23:50.673Z,2.87
2018-12-04T03:26:18.142Z,1.93
2018-12-04T03:28:45.594Z,3.50
2018-12-04T03:31:13.073Z,1.70
2018-12-04T03:33:40.540Z,3.17
2018-12-04T03:36:08.031Z,2.13
2018-12-04T03:38:35.496Z,2.20
2018-12-04T03:41:03.030Z,2.43
2018-12-04T03:43:30.505Z,1.20
2018-12-04T03:45:57.954Z,2.07
2018-12-04T03:48:25.454Z,1.30
2018-12-04T03:50:52.906Z,1.10
2018-12-04T03:53:20.375Z,1.30
2018-12-04T03:55:47.833Z,2.57
2018-12-04T03:58:15.311Z,2.27
2018-12-04T04:00:42.794Z,1.43
2018-12-04T04:03:10.386Z,1.00
2018-12-04T04:05:37.864Z,1.47
2018-12-04T04:08:05.391Z,1.60
2018-12-04T04:10:32.866Z,1.40
2018-12-04T04:13:00.351Z,1.13
2018-12-04T04:15:27.798Z,2.47
2018-12-04T04:17:55.310Z,1.63
2018-12-04T04:20:22.761Z,1.40
2018-12-04T04:22:50.249Z,1.40
2018-12-04T04:25:17.704Z,2.83
2018-12-04T04:27:45.181Z,3.63
2018-12-04T04:30:12.635Z,2.67
2018-12-04T04:32:40.122Z,1.20
2018-12-04T04:35:07.580Z,1.20
2018-12-04T04:37:35.049Z,1.47
2018-12-04T04:40:02.517Z,1.20
2018-12-04T04:42:29.993Z,1.73
2018-12-04T04:44:57.451Z,2.13
2018-12-04T04:47:24.908Z,1.30
2018-12-04T04:49:52.391Z,1.17
2018-12-04T04:52:19.850Z,2.70
2018-12-04T04:54:47.347Z,2.07
2018-12-04T04:57:14.860Z,1.07
2018-12-04T04:59:42.363Z,2.10
2018-12-04T05:02:09.808Z,3.30
2018-12-04T05:04:37.299Z,7.00
2018-12-04T05:07:04.751Z,1.70
2018-12-04T05:09:32.225Z,1.40
2018-12-04T05:11:59.698Z,1.30
2018-12-04T05:14:27.157Z,1.70
2018-12-04T05:16:54.618Z,1.40
2018-12-04T05:19:22.087Z,1.73
2018-12-04T05:21:49.544Z,1.07
2018-12-04T05:24:17.035Z,1.20
2018-12-04T05:26:44.499Z,1.70
2018-12-04T05:29:11.980Z,2.47
2018-12-04T05:31:39.431Z,2.47
2018-12-04T05:34:06.895Z,1.33
2018-12-04T05:36:34.347Z,1.37
2018-12-04T05:39:01.825Z,2.37
2018-12-04T05:41:29.300Z,2.07
2018-12-04T05:43:56.770Z,2.07
2018-12-04T05:46:24.222Z,1.60
2018-12-04T05:48:51.696Z,3.53
2018-12-04T05:51:19.169Z,2.07
2018-12-04T05:53:46.675Z,3.33
2018-12-04T05:56:14.142Z,3.47
2018-12-04T05:58:41.598Z,2.20
2018-12-04T06:01:09.067Z,1.90
2018-12-04T06:03:36.527Z,3.63
2018-12-04T06:06:04.002Z,1.83
2018-12-04T06:08:31.461Z,2.10
2018-12-04T06:10:59.424Z,1.73
2018-12-04T06:13:26.890Z,2.13
2018-12-04T06:15:54.361Z,2.00
2018-12-04T06:18:21.834Z,2.23
2018-12-04T06:20:49.313Z,3.13
2018-12-04T06:23:16.767Z,2.60
2018-12-04T06:25:44.241Z,4.70
2018-12-04T06:28:11.700Z,3.00
2018-12-04T06:30:39.237Z,3.03
2018-12-04T06:33:06.673Z,2.53
2018-12-04T06:35:34.139Z,2.50
2018-12-04T06:38:01.593Z,2.20
2018-12-04T06:40:29.067Z,3.43
2018-12-04T06:42:56.535Z,3.60
2018-12-04T06:45:23.990Z,2.50
2018-12-04T06:47:51.473Z,2.43
2018-12-04T06:50:18.934Z,4.10
2018-12-04T06:52:46.417Z,4.57
2018-12-04T06:55:13.865Z,2.87
2018-12-04T06:57:41.331Z,2.57
2018-12-04T07:00:08.802Z,3.63
2018-12-04T07:02:36.362Z,3.30
2018-12-04T07:05:04.036Z,3.57
2018-12-04T07:07:31.524Z,3.83
2018-12-04T07:09:58.981Z,2.27
2018-12-04T07:12:26.486Z,3.93
2018-12-04T07:14:53.947Z,3.57
2018-12-04T07:17:21.419Z,3.73
2018-12-04T07:19:48.861Z,3.20
2018-12-04T07:22:16.470Z,2.67
2018-12-04T07:24:43.927Z,4.97
2018-12-04T07:27:11.434Z,4.83
2018-12-04T07:29:38.895Z,5.30
2018-12-04T07:32:06.621Z,5.27
2018-12-04T07:34:34.106Z,4.80
2018-12-04T07:43:55.556Z,4.73
2018-12-04T07:46:23.026Z,3.07
2018-12-04T07:48:50.486Z,3.10
2018-12-04T07:51:17.942Z,4.17
2018-12-04T07:53:45.416Z,5.43
2018-12-04T07:56:12.872Z,5.77
2018-12-04T07:58:40.342Z,3.30
2018-12-04T08:01:07.811Z,7.07
2018-12-04T08:03:35.313Z,10.50
2018-12-04T08:06:04.702Z,6.07
2018-12-04T08:08:32.202Z,4.23
2018-12-04T08:10:59.654Z,3.73
2018-12-04T08:13:27.123Z,7.63
2018-12-04T08:15:54.572Z,4.07
2018-12-04T08:18:22.058Z,3.93
2018-12-04T08:20:49.530Z,3.67
2018-12-04T08:23:16.986Z,3.63
2018-12-04T08:25:44.455Z,3.10
2018-12-04T08:28:11.926Z,8.67
2018-12-04T08:30:39.413Z,3.17
2018-12-04T08:33:07.587Z,3.67
2018-12-04T08:35:35.057Z,2.93
2018-12-04T08:38:02.526Z,4.23
2018-12-04T08:40:30.026Z,3.37
2018-12-04T08:42:57.595Z,4.97
2018-12-04T08:45:25.065Z,4.73
2018-12-04T08:47:52.524Z,2.67
2018-12-04T08:50:20.019Z,2.63
2018-12-04T08:52:47.499Z,5.53
2018-12-04T08:55:14.961Z,4.63
2018-12-04T08:57:42.430Z,4.73
2018-12-04T09:00:09.945Z,5.60
2018-12-04T09:02:37.426Z,4.17
2018-12-04T09:05:06.405Z,7.33
2018-12-04T09:07:33.986Z,2.40
2018-12-04T09:10:02.618Z,3.23
2018-12-04T09:12:30.069Z,2.43
2018-12-04T09:14:57.557Z,3.87
2018-12-04T09:17:25.009Z,2.63
2018-12-04T09:19:52.525Z,3.27
2018-12-04T09:22:20.119Z,4.23
2018-12-04T09:24:47.679Z,7.50
2018-12-04T09:27:15.139Z,4.23
2018-12-04T09:29:42.749Z,4.53
2018-12-04T09:32:10.530Z,3.87
2018-12-04T09:34:38.013Z,4.53
2018-12-04T09:37:05.466Z,2.87
2018-12-04T09:39:32.925Z,3.40
2018-12-04T09:42:00.415Z,5.83
2018-12-04T09:44:27.855Z,3.33
2018-12-04T09:46:55.334Z,3.03
2018-12-04T09:49:22.802Z,4.87
2018-12-04T09:51:50.269Z,6.20
2018-12-04T09:54:17.749Z,6.07
2018-12-04T09:56:45.218Z,5.37
2018-12-04T09:59:12.694Z,4.27
2018-12-04T10:01:40.387Z,4.53
2018-12-04T10:04:07.848Z,6.87
2018-12-04T10:06:35.349Z,3.20
2018-12-04T10:09:03.211Z,8.63
2018-12-04T10:11:30.700Z,7.53
2018-12-04T10:13:58.220Z,5.80
2018-12-04T10:16:25.704Z,6.53
2018-12-04T10:18:53.163Z,9.67
2018-12-04T10:21:20.640Z,6.07
2018-12-04T10:23:48.101Z,3.17
2018-12-04T10:26:15.600Z,6.43
2018-12-04T10:28:43.057Z,4.17
2018-12-04T10:31:10.549Z,3.10
2018-12-04T10:33:38.002Z,8.20
2018-12-04T10:36:05.484Z,4.87
2018-12-04T10:38:32.947Z,9.53
2018-12-04T10:41:00.397Z,4.53
2018-12-04T10:43:27.872Z,8.77
2018-12-04T10:45:55.355Z,5.60
2018-12-04T10:48:22.835Z,5.43
2018-12-04T10:50:50.284Z,4.97
2018-12-04T10:53:17.774Z,9.00
2018-12-04T10:55:45.230Z,6.63
2018-12-04T10:58:12.726Z,5.30
2018-12-04T11:00:45.881Z,6.03
2018-12-04T11:03:13.391Z,2.70
2018-12-04T11:05:41.013Z,4.33
2018-12-04T11:08:08.499Z,3.57
2018-12-04T11:10:35.964Z,6.53
2018-12-04T11:13:03.478Z,3.40
2018-12-04T11:15:30.931Z,3.23
2018-12-04T11:17:58.419Z,4.80
2018-12-04T11:20:25.871Z,4.47
2018-12-04T11:22:53.375Z,3.23
2018-12-04T11:25:20.843Z,4.57
2018-12-04T11:27:48.306Z,8.17
2018-12-04T11:30:15.788Z,4.57
2018-12-04T11:32:44.030Z,3.73
2018-12-04T11:35:11.477Z,2.90
2018-12-04T11:37:38.973Z,4.27
2018-12-04T11:40:06.459Z,3.63
2018-12-04T11:42:33.929Z,5.67
2018-12-04T11:45:01.427Z,2.90
2018-12-04T11:47:28.894Z,6.10
2018-12-04T11:49:56.463Z,3.33
2018-12-04T11:52:23.923Z,7.17
2018-12-04T11:54:51.438Z,5.17
2018-12-04T11:57:18.914Z,4.50
2018-12-04T11:59:46.391Z,5.73
2018-12-04T12:02:14.038Z,6.57
2018-12-04T12:04:41.508Z,9.97
2018-12-04T12:07:08.961Z,6.73
2018-12-04T12:09:36.449Z,6.30
2018-12-04T12:12:03.906Z,8.37
2018-12-04T12:14:31.378Z,5.47
2018-12-04T12:16:58.835Z,7.77
2018-12-04T12:19:26.327Z,7.37
2018-12-04T12:21:53.785Z,6.83
2018-12-04T12:24:21.260Z,5.13
2018-12-04T12:26:48.716Z,4.97
2018-12-04T12:29:16.192Z,12.93
2018-12-04T12:31:43.645Z,5.10
2018-12-04T12:34:11.113Z,29.70
2018-12-04T12:36:38.563Z,10.27
2018-12-04T12:39:07.375Z,8.37
2018-12-04T12:41:34.838Z,11.37
2018-12-04T12:44:02.287Z,8.53
2018-12-04T12:46:29.751Z,8.47
2018-12-04T12:48:57.224Z,7.07
2018-12-04T12:51:24.690Z,7.53
2018-12-04T12:53:52.143Z,9.73
2018-12-04T12:56:19.620Z,9.50
2018-12-04T12:58:47.068Z,5.83
2018-12-04T13:01:14.557Z,10.03
2018-12-04T13:03:41.997Z,5.20
2018-12-04T13:06:09.474Z,7.90
2018-12-04T13:08:36.934Z,12.33
2018-12-04T13:11:04.409Z,4.87
2018-12-04T13:13:36.765Z,8.37
2018-12-04T13:16:01.362Z,5.77
2018-12-04T13:18:28.816Z,4.63
2018-12-04T13:20:56.283Z,5.87
2018-12-04T13:23:23.769Z,6.40
2018-12-04T13:25:51.314Z,4.93
2018-12-04T13:28:18.834Z,5.93
2018-12-04T13:30:46.317Z,6.23
2018-12-04T13:33:13.870Z,4.53
2018-12-04T13:35:41.515Z,7.50
2018-12-04T13:38:08.999Z,5.27
2018-12-04T13:40:36.548Z,4.30
2018-12-04T13:43:04.029Z,4.10
2018-12-04T13:45:31.498Z,8.13
2018-12-04T13:48:00.799Z,4.93
2018-12-04T13:50:28.597Z,5.00
2018-12-04T13:52:56.170Z,6.87
2018-12-04T13:55:23.729Z,5.33
2018-12-04T13:57:51.262Z,6.20
2018-12-04T14:00:18.851Z,7.73
2018-12-04T14:02:46.364Z,4.70
2018-12-04T14:05:13.822Z,11.27
2018-12-04T14:07:41.320Z,6.03
2018-12-04T14:10:08.784Z,7.53
2018-12-04T14:12:36.367Z,8.80
2018-12-04T14:15:03.999Z,5.83
2018-12-04T14:17:31.513Z,4.87
2018-12-04T14:19:59.137Z,10.10
2018-12-04T14:22:26.706Z,5.10
2018-12-04T14:24:54.200Z,7.57
2018-12-04T14:27:21.674Z,6.10
2018-12-04T14:29:49.251Z,5.00
2018-12-04T14:32:16.738Z,5.67
2018-12-04T14:34:44.294Z,8.37
2018-12-04T14:37:11.836Z,4.20
2018-12-04T14:39:39.361Z,4.87
2018-12-04T14:42:06.989Z,7.57
2018-12-04T14:44:34.549Z,11.27
2018-12-04T14:47:02.166Z,6.67
2018-12-04T14:49:29.731Z,8.00
2018-12-04T14:51:57.194Z,8.97
2018-12-04T14:54:24.765Z,6.73
2018-12-04T14:56:52.322Z,9.23
2018-12-04T14:59:19.962Z,7.50
2018-12-04T15:01:47.406Z,7.33
2018-12-04T15:04:14.890Z,7.63
2018-12-04T15:06:42.466Z,9.93
2018-12-04T15:09:10.045Z,12.63
2018-12-04T15:11:37.488Z,8.23
2018-12-04T15:14:05.010Z,6.67
2018-12-04T15:16:32.555Z,7.93
2018-12-04T15:19:00.051Z,8.57
2018-12-04T15:21:27.621Z,7.67
2018-12-04T15:23:55.104Z,6.93
2018-12-04T15:26:22.625Z,8.53
2018-12-04T15:28:50.198Z,9.80
2018-12-04T15:31:17.724Z,12.53
2018-12-04T15:33:45.307Z,13.93
2018-12-04T15:36:12.846Z,10.13
2018-12-04T15:38:40.327Z,5.77
2018-12-04T15:41:07.791Z,11.47
2018-12-04T15:43:35.324Z,7.67
2018-12-04T15:46:02.821Z,8.13
2018-12-04T15:48:30.269Z,10.80
2018-12-04T15:51:00.046Z,11.00
2018-12-04T15:53:27.587Z,10.63
2018-12-04T15:55:55.156Z,11.00
2018-12-04T15:58:22.619Z,18.30
2018-12-04T16:00:50.090Z,12.53
2018-12-04T16:03:17.552Z,11.70
2018-12-04T16:05:45.021Z,14.13
2018-12-04T16:08:12.501Z,12.37
2018-12-04T16:10:40.010Z,19.07
2018-12-04T16:13:07.476Z,11.80
2018-12-04T16:15:34.959Z,11.47
2018-12-04T16:18:02.425Z,12.20
2018-12-04T16:20:29.885Z,10.83
2018-12-04T16:22:57.387Z,11.90
2018-12-04T16:25:24.879Z,7.27
2018-12-04T16:27:52.344Z,12.77
2018-12-04T16:30:19.974Z,15.57
2018-12-04T16:32:47.435Z,15.83
2018-12-04T16:35:14.972Z,9.53
2018-12-04T16:37:42.454Z,14.57
2018-12-04T16:40:10.075Z,11.93
2018-12-04T16:42:37.566Z,12.00
2018-12-04T16:45:07.021Z,12.13
2018-12-04T16:47:34.478Z,15.93
2018-12-04T16:50:01.946Z,10.87
2018-12-04T16:52:29.430Z,10.83
2018-12-04T16:54:56.992Z,11.47
2018-12-04T16:57:24.451Z,12.43
2018-12-04T16:59:51.921Z,17.13
2018-12-04T17:02:19.418Z,19.83
2018-12-04T17:04:47.000Z,13.60
2018-12-04T17:07:14.482Z,12.33
2018-12-04T17:09:41.942Z,19.57
2018-12-04T17:12:09.435Z,19.40
2018-12-04T17:14:36.921Z,16.03
2018-12-04T17:17:04.811Z,23.93
2018-12-04T17:19:32.553Z,17.93
2018-12-04T17:22:00.063Z,25.93
2018-12-04T17:24:27.555Z,17.00
2018-12-04T17:26:55.035Z,22.93
2018-12-04T17:29:22.496Z,21.73
2018-12-04T17:31:50.007Z,19.27
2018-12-04T17:34:17.469Z,18.07
2018-12-04T17:36:44.956Z,21.57
2018-12-04T17:39:12.419Z,24.60
2018-12-04T17:41:39.916Z,23.33
2018-12-04T17:44:07.372Z,18.23
2018-12-04T17:46:34.864Z,22.03
2018-12-04T17:49:02.577Z,18.10
2018-12-04T17:51:30.152Z,20.13
2018-12-04T17:53:57.669Z,18.03
2018-12-04T17:56:25.127Z,18.43
2018-12-04T17:58:52.630Z,15.90
2018-12-04T18:01:20.104Z,16.53
2018-12-04T18:03:47.596Z,19.63
2018-12-04T18:06:15.077Z,21.03
2018-12-04T18:08:42.556Z,18.20
2018-12-04T18:11:10.106Z,22.13
2018-12-04T18:13:37.603Z,14.67
2018-12-04T18:16:05.076Z,26.13
2018-12-04T18:18:32.563Z,28.03
2018-12-04T18:21:00.059Z,24.00
2018-12-04T18:23:27.540Z,23.67
2018-12-04T18:25:55.015Z,20.10
2018-12-04T18:28:22.532Z,21.17
2018-12-04T18:30:50.017Z,15.43
2018-12-04T18:33:17.513Z,13.60
2018-12-04T18:35:44.978Z,17.23
2018-12-04T18:38:12.490Z,12.23
2018-12-04T18:40:39.968Z,14.27
2018-12-04T18:43:07.480Z,15.40
2018-12-04T18:45:34.976Z,16.37
2018-12-04T18:48:02.513Z,18.33
2018-12-04T18:50:30.013Z,15.83
2018-12-04T18:52:57.501Z,13.63
2018-12-04T18:55:24.995Z,14.67
2018-12-04T18:57:52.566Z,13.33
2018-12-04T19:00:20.051Z,11.57
2018-12-04T19:02:47.557Z,15.93
2018-12-04T19:05:15.106Z,12.60
2018-12-04T19:07:42.636Z,13.70
2018-12-04T19:10:10.123Z,13.13
2018-12-04T19:12:37.635Z,14.40
2018-12-04T19:15:05.605Z,12.97
2018-12-04T19:17:33.068Z,19.97
2018-12-04T19:20:00.565Z,16.20
2018-12-04T19:22:28.057Z,15.13
2018-12-04T19:24:55.552Z,15.03
2018-12-04T19:27:23.016Z,16.87
2018-12-04T19:29:50.509Z,18.17
2018-12-04T19:32:17.970Z,14.73
2018-12-04T19:34:45.472Z,14.93
2018-12-04T19:37:12.975Z,13.23
2018-12-04T19:39:40.459Z,16.53
2018-12-04T19:42:07.942Z,13.00
2018-12-04T19:44:35.452Z,16.23
2018-12-04T19:47:02.979Z,16.43
2018-12-04T19:49:30.482Z,16.53
2018-12-04T19:51:57.950Z,16.60
2018-12-04T19:54:25.444Z,14.90
2018-12-04T19:56:52.922Z,17.37
2018-12-04T19:59:20.389Z,14.37
2018-12-04T20:01:47.879Z,12.17
2018-12-04T20:04:15.356Z,15.67
2018-12-04T20:06:42.839Z,11.70
2018-12-04T20:09:10.330Z,14.07
2018-12-04T20:11:37.805Z,14.47
2018-12-04T20:14:05.271Z,15.90
2018-12-04T20:16:32.880Z,13.83
2018-12-04T20:19:00.478Z,15.77
2018-12-04T20:21:27.980Z,11.33
2018-12-04T20:23:55.832Z,14.17
2018-12-04T20:26:23.437Z,12.43
2018-12-04T20:28:50.944Z,15.80
2018-12-04T20:31:18.432Z,17.80
2018-12-04T20:33:46.001Z,15.77
2018-12-04T20:36:13.539Z,11.10
2018-12-04T20:38:41.069Z,13.37
2018-12-04T20:41:08.540Z,13.13
2018-12-04T20:43:36.399Z,11.93
2018-12-04T20:46:06.069Z,14.30
2018-12-04T20:48:33.489Z,13.13
2018-12-04T20:51:00.992Z,15.23
2018-12-04T20:53:28.458Z,15.93
2018-12-04T20:55:55.980Z,17.40
2018-12-04T20:58:23.645Z,15.40
2018-12-04T21:00:51.227Z,14.47
2018-12-04T21:03:18.783Z,11.83
2018-12-04T21:05:46.237Z,11.40
2018-12-04T21:08:13.859Z,12.37
2018-12-04T21:10:41.413Z,13.43
2018-12-04T21:13:14.483Z,14.30
2018-12-04T21:15:38.379Z,11.30
2018-12-04T21:18:05.869Z,12.97
2018-12-04T21:20:33.319Z,11.83
2018-12-04T21:23:00.907Z,10.17
2018-12-04T21:25:28.414Z,12.17
2018-12-04T21:28:01.632Z,12.13
2018-12-04T21:30:34.755Z,13.93
2018-12-04T21:36:13.466Z,13.50
2018-12-04T21:38:46.642Z,16.07
2018-12-04T21:41:16.069Z,16.23
2018-12-04T21:43:49.225Z,11.90
2018-12-04T21:46:22.423Z,13.63
2018-12-04T21:48:50.034Z,15.60
2018-12-04T21:51:17.499Z,13.37
2018-12-04T21:53:44.963Z,15.67
2018-12-04T21:56:12.450Z,12.80
2018-12-04T21:58:39.942Z,14.97
2018-12-04T22:01:07.403Z,21.27
2018-12-04T22:03:34.894Z,10.80
2018-12-04T22:06:02.355Z,19.77
2018-12-04T22:08:30.019Z,15.57
2018-12-04T22:10:57.478Z,17.80
2018-12-04T22:13:25.062Z,18.83
2018-12-04T22:15:52.543Z,16.13
2018-12-04T22:18:20.029Z,15.60
2018-12-04T22:20:47.484Z,18.10
2018-12-04T22:23:14.968Z,16.10
2018-12-04T22:25:42.441Z,17.83
2018-12-04T22:28:09.912Z,14.10
2018-12-04T22:30:37.436Z,12.50
2018-12-04T22:33:04.883Z,11.90
2018-12-04T22:35:32.358Z,10.90
2018-12-04T22:37:59.833Z,17.87
2018-12-04T22:40:27.315Z,15.87
2018-12-04T22:42:54.786Z,14.73
2018-12-04T22:45:25.439Z,11.33
2018-12-04T22:47:52.982Z,13.20
2018-12-04T22:50:20.459Z,11.37
2018-12-04T22:52:47.997Z,9.83
2018-12-04T22:55:15.487Z,11.77
2018-12-04T22:57:42.970Z,12.40
2018-12-04T23:00:16.224Z,12.73
2018-12-04T23:02:43.678Z,15.30
2018-12-04T23:05:11.199Z,17.93
2018-12-04T23:07:38.658Z,13.47
2018-12-04T23:10:07.378Z,14.43
2018-12-04T23:12:34.856Z,10.33
2018-12-04T23:15:02.461Z,13.43
2018-12-04T23:17:29.930Z,11.50
2018-12-04T23:19:57.419Z,13.73
2018-12-04T23:22:24.987Z,11.80
2018-12-04T23:24:52.465Z,16.63
2018-12-04T23:27:19.956Z,11.80
2018-12-04T23:29:47.446Z,11.83
2018-12-04T23:32:14.899Z,12.07
2018-12-04T23:34:42.587Z,9.83
2018-12-04T23:37:10.058Z,15.23
2018-12-04T23:39:37.530Z,14.87
2018-12-04T23:42:04.996Z,16.20
2018-12-04T23:44:32.459Z,16.50
2018-12-04T23:46:59.926Z,15.33
2018-12-04T23:49:27.419Z,13.87
2018-12-04T23:51:54.896Z,13.43
2018-12-04T23:54:22.352Z,18.17
2018-12-04T23:56:49.831Z,13.70
2018-12-04T23:59:17.290Z,20.40
